createdAt,value
2019-05-10T00:04:05.408Z,101583.02
2019-05-10T00:06:54.212Z,101581.52
2019-05-10T00:09:42.797Z,101584.36
2019-05-10T00:20:30.875Z,101568.86
2019-05-10T00:23:00.903Z,101569.66
2019-05-10T00:25:31.448Z,101570.54
2019-05-10T00:28:41.898Z,101572.45
2019-05-10T00:31:11.734Z,101572.61
2019-05-10T00:34:20.566Z,101568.87
2019-05-10T00:43:06.215Z,101563.83
2019-05-10T00:45:35.552Z,101565.84
2019-05-10T00:48:05.819Z,101566.03
2019-05-10T00:50:35.261Z,101564.31
2019-05-10T00:53:04.791Z,101569.10
2019-05-10T00:58:30.882Z,101561.57
2019-05-10T01:01:00.247Z,101559.45
2019-05-10T01:04:09.190Z,101554.30
2019-05-10T01:09:40.995Z,101552.63
2019-05-10T01:12:10.865Z,101555.89
2019-05-10T01:14:40.316Z,101555.98
2019-05-10T01:17:31.325Z,101553.88
2019-05-10T01:23:02.264Z,101555.81
2019-05-10T01:25:35.599Z,101552.92
2019-05-10T01:28:04.182Z,101552.79
2019-05-10T01:30:34.108Z,101549.77
2019-05-10T01:33:03.895Z,101552.92
2019-05-10T01:35:33.492Z,101551.13
2019-05-10T01:38:03.529Z,101552.97
2019-05-10T01:40:33.363Z,101539.79
2019-05-10T01:43:22.200Z,101536.89
2019-05-10T01:45:51.610Z,101439.12
2019-05-10T01:49:00.712Z,101537.22
2019-05-10T01:54:44.647Z,101538.75
2019-05-10T01:57:14.436Z,101537.04
2019-05-10T01:59:44.844Z,101535.19
2019-05-10T02:02:14.360Z,101526.70
2019-05-10T02:05:23.858Z,101532.43
2019-05-10T02:10:48.723Z,101526.27
2019-05-10T02:13:18.642Z,101524.56
2019-05-10T02:15:48.160Z,101530.70
2019-05-10T02:18:57.850Z,101534.84
2019-05-10T02:21:47.153Z,101535.47
2019-05-10T02:24:16.641Z,101530.73
2019-05-10T02:30:01.073Z,101529.33
2019-05-10T02:32:31.751Z,101527.16
2019-05-10T02:35:01.135Z,101521.92
2019-05-10T02:38:09.955Z,101523.97
2019-05-10T02:40:40.059Z,101512.50
2019-05-10T02:43:09.432Z,101511.90
2019-05-10T02:45:38.885Z,101508.02
2019-05-10T02:48:09.944Z,101522.10
2019-05-10T02:51:19.027Z,101518.17
2019-05-10T02:53:49.289Z,101417.34
2019-05-10T02:56:58.855Z,101524.18
2019-05-10T03:08:50.620Z,101519.75
2019-05-10T03:14:32.595Z,101512.76
2019-05-10T03:20:17.309Z,101520.84
2019-05-10T03:25:56.117Z,101521.75
2019-05-10T03:28:44.774Z,101513.68
2019-05-10T03:31:53.806Z,101517.80
2019-05-10T03:34:24.150Z,101512.28
2019-05-10T03:36:54.279Z,101518.61
2019-05-10T03:42:24.328Z,101518.52
2019-05-10T03:48:08.945Z,101516.32
2019-05-10T03:50:38.823Z,101502.69
2019-05-10T03:56:16.995Z,101500.91
2019-05-10T04:02:01.622Z,101498.02
2019-05-10T04:04:31.557Z,101497.34
2019-05-10T04:07:00.970Z,101493.42
2019-05-10T04:10:09.712Z,101491.19
2019-05-10T04:12:40.117Z,101486.52
2019-05-10T04:15:48.929Z,101483.80
2019-05-10T04:21:08.100Z,101478.52
2019-05-10T04:23:37.460Z,101480.80
2019-05-10T04:26:06.942Z,101482.54
2019-05-10T04:28:36.407Z,101477.27
2019-05-10T04:31:05.855Z,101482.52
2019-05-10T04:33:35.367Z,101474.91
2019-05-10T04:36:05.071Z,101488.14
2019-05-10T04:38:34.516Z,101485.88
2019-05-10T04:41:04.114Z,101488.97
2019-05-10T04:43:33.609Z,101480.94
2019-05-10T04:46:42.298Z,101475.20
2019-05-10T04:49:11.954Z,101470.76
2019-05-10T04:51:41.504Z,101452.70
2019-05-10T04:54:11.064Z,101451.05
2019-05-10T05:02:36.699Z,101446.86
2019-05-10T05:05:45.888Z,101449.00
2019-05-10T05:08:16.136Z,101449.80
2019-05-10T05:13:54.274Z,101436.50
2019-05-10T05:17:03.311Z,101440.63
2019-05-10T05:19:34.062Z,101440.05
2019-05-10T05:22:04.802Z,101439.69
2019-05-10T05:25:14.252Z,101436.50
2019-05-10T05:30:40.390Z,101441.10
2019-05-10T05:33:10.245Z,101436.80
2019-05-10T05:36:19.159Z,101423.11
2019-05-10T05:44:30.503Z,101415.66
2019-05-10T05:47:42.465Z,101410.00
2019-05-10T05:50:50.748Z,101412.68
2019-05-10T05:53:22.507Z,101404.44
2019-05-10T05:55:55.022Z,101398.28
2019-05-10T05:59:03.826Z,101397.13
2019-05-10T06:01:33.902Z,101390.42
2019-05-10T06:04:06.318Z,101384.33
2019-05-10T06:06:35.714Z,101375.03
2019-05-10T06:09:44.776Z,101377.37
2019-05-10T06:15:35.175Z,101364.84
2019-05-10T06:21:25.188Z,101369.70
2019-05-10T06:23:51.022Z,101368.98
2019-05-10T06:29:30.181Z,101355.31
2019-05-10T06:31:59.709Z,101351.44
2019-05-10T06:35:14.280Z,101352.24
2019-05-10T06:37:42.952Z,101342.38
2019-05-10T06:43:13.257Z,101337.75
2019-05-10T06:45:46.645Z,101338.42
2019-05-10T06:48:13.197Z,101343.48
2019-05-10T06:53:41.614Z,101342.49
2019-05-10T06:56:28.878Z,101335.11
2019-05-10T06:59:12.226Z,101330.23
2019-05-10T07:01:30.039Z,101328.65
2019-05-10T07:03:59.528Z,101324.08
2019-05-10T07:07:10.217Z,101324.66
2019-05-10T07:10:01.713Z,101328.28
2019-05-10T07:12:15.187Z,101236.57
2019-05-10T07:14:45.848Z,101324.84
2019-05-10T07:17:15.397Z,101327.53
2019-05-10T07:20:29.652Z,101327.58
2019-05-10T07:23:08.339Z,101325.87
2019-05-10T07:28:57.523Z,101321.14
2019-05-10T07:31:24.159Z,101325.55
2019-05-10T07:33:56.001Z,101315.71
2019-05-10T07:36:27.048Z,101324.98
2019-05-10T07:42:31.280Z,101324.05
2019-05-10T07:45:01.262Z,101316.97
2019-05-10T07:47:50.637Z,101308.98
2019-05-10T07:53:31.978Z,101305.47
2019-05-10T07:56:20.836Z,101304.42
2019-05-10T07:58:50.241Z,101300.87
2019-05-10T08:01:29.010Z,101293.64
2019-05-10T08:03:52.753Z,101286.36
2019-05-10T08:06:23.782Z,101287.84
2019-05-10T08:08:55.541Z,101289.30
2019-05-10T08:11:25.105Z,101291.45
2019-05-10T08:13:57.885Z,101291.08
2019-05-10T08:16:26.486Z,101289.86
2019-05-10T08:19:00.904Z,101284.91
2019-05-10T08:21:27.889Z,101287.16
2019-05-10T08:27:14.867Z,101288.14
2019-05-10T08:29:44.703Z,101284.34
2019-05-10T08:32:14.621Z,101293.33
2019-05-10T08:34:52.054Z,101282.91
2019-05-10T08:37:19.295Z,101286.03
2019-05-10T08:39:49.553Z,101284.96
2019-05-10T08:42:34.718Z,101290.77
2019-05-10T08:44:53.641Z,101290.77
2019-05-10T08:50:36.766Z,101278.97
2019-05-10T08:52:56.299Z,101277.22
2019-05-10T08:55:22.662Z,101277.16
2019-05-10T09:01:14.644Z,101279.27
2019-05-10T09:03:28.068Z,101272.97
2019-05-10T09:06:05.255Z,101280.22
2019-05-10T09:08:34.014Z,101269.05
2019-05-10T09:11:06.517Z,101264.86
2019-05-10T09:14:19.839Z,101263.17
2019-05-10T09:16:56.502Z,101257.47
2019-05-10T09:19:41.061Z,101262.18
2019-05-10T09:22:08.171Z,101260.80
2019-05-10T09:24:43.086Z,101255.34
2019-05-10T09:27:09.193Z,101254.41
2019-05-10T09:29:38.571Z,101259.52
2019-05-10T09:32:08.411Z,101256.00
2019-05-10T09:35:17.595Z,101250.94
2019-05-10T09:37:54.109Z,101248.19
2019-05-10T09:40:22.036Z,101241.89
2019-05-10T09:42:52.329Z,101241.62
2019-05-10T09:45:24.375Z,101238.44
2019-05-10T09:47:54.917Z,101232.14
2019-05-10T09:50:24.522Z,101235.69
2019-05-10T09:52:54.523Z,101227.73
2019-05-10T09:55:28.068Z,101230.53
2019-05-10T09:57:59.062Z,101222.92
2019-05-10T10:01:17.933Z,101217.55
2019-05-10T10:09:47.752Z,101213.77
2019-05-10T10:12:17.661Z,101206.08
2019-05-10T10:14:49.079Z,101206.68
2019-05-10T10:17:20.566Z,101197.88
2019-05-10T10:19:50.278Z,101198.76
2019-05-10T10:25:17.568Z,101205.25
2019-05-10T10:27:48.047Z,101202.41
2019-05-10T10:31:02.966Z,101207.55
2019-05-10T10:36:30.434Z,101216.94
2019-05-10T10:39:22.934Z,101209.63
2019-05-10T10:48:02.444Z,101213.69
2019-05-10T10:56:50.187Z,101212.35
2019-05-10T10:59:19.713Z,101215.00
2019-05-10T11:01:56.648Z,101203.61
2019-05-10T11:04:20.316Z,101197.19
2019-05-10T11:10:15.209Z,101190.19
2019-05-10T11:13:23.803Z,101186.45
2019-05-10T11:18:43.706Z,101183.51
2019-05-10T11:21:52.519Z,101175.55
2019-05-10T11:27:18.309Z,101163.75
2019-05-10T11:30:29.042Z,101154.36
2019-05-10T11:35:57.608Z,101139.16
2019-05-10T11:41:52.999Z,101130.30
2019-05-10T11:44:22.095Z,101131.56
2019-05-10T11:46:51.297Z,101120.86
2019-05-10T11:50:06.100Z,101125.16
2019-05-10T11:52:34.918Z,101125.47
2019-05-10T11:55:22.108Z,101125.41
2019-05-10T12:00:28.402Z,101117.56
2019-05-10T12:03:07.435Z,101108.89
2019-05-10T12:05:27.020Z,101109.62
2019-05-10T12:07:58.134Z,101101.83
2019-05-10T12:10:27.570Z,101101.80
2019-05-10T12:15:32.671Z,101100.25
2019-05-10T12:21:00.142Z,101083.12
2019-05-10T12:24:10.340Z,101079.33
2019-05-10T12:25:59.518Z,101117.98
2019-05-10T12:26:16.312Z,101101.67
2019-05-10T12:26:31.279Z,101097.30
2019-05-10T12:29:11.499Z,101070.95
2019-05-10T12:31:31.609Z,101063.94
2019-05-10T12:34:08.872Z,101062.34
2019-05-10T12:36:32.931Z,101048.48
2019-05-10T12:39:03.683Z,101051.17
2019-05-10T12:41:39.755Z,101044.64
2019-05-10T12:44:07.380Z,101032.52
2019-05-10T12:47:21.316Z,101032.23
2019-05-10T12:49:53.866Z,101016.87
2019-05-10T12:58:14.977Z,101000.39
2019-05-10T13:03:54.648Z,100991.27
2019-05-10T13:06:24.652Z,100986.48
2019-05-10T13:08:54.299Z,100991.67
2019-05-10T13:11:25.290Z,100998.91
2019-05-10T13:13:55.010Z,100992.86
2019-05-10T13:16:24.442Z,100993.55
2019-05-10T13:18:53.889Z,100991.28
2019-05-10T13:27:39.870Z,100990.12
2019-05-10T13:33:29.048Z,100989.75
2019-05-10T13:35:56.690Z,100981.61
2019-05-10T13:38:27.965Z,100980.60
2019-05-10T13:40:57.904Z,100976.77
2019-05-10T13:43:28.418Z,100974.47
2019-05-10T13:45:58.376Z,100969.91
2019-05-10T13:48:27.962Z,100963.31
2019-05-10T13:50:57.573Z,100956.51
2019-05-10T13:53:27.116Z,100951.53
2019-05-10T13:59:48.762Z,100954.77
2019-05-10T14:05:30.679Z,100945.91
2019-05-10T14:08:00.156Z,100946.85
2019-05-10T14:10:29.543Z,100947.55
2019-05-10T14:13:02.379Z,100953.92
2019-05-10T14:15:32.352Z,100960.85
2019-05-10T14:20:58.068Z,100958.86
2019-05-10T14:23:28.806Z,100960.89
2019-05-10T14:25:59.046Z,100957.55
2019-05-10T14:28:28.615Z,100938.06
2019-05-10T14:30:59.053Z,100934.79
2019-05-10T14:33:30.364Z,100948.66
2019-05-10T14:36:03.353Z,100946.66
2019-05-10T14:38:32.889Z,100952.83
2019-05-10T14:41:03.874Z,100954.80
2019-05-10T14:43:35.590Z,100946.51
2019-05-10T14:46:05.422Z,100952.08
2019-05-10T14:48:35.645Z,100960.45
2019-05-10T14:51:11.267Z,100958.55
2019-05-10T14:53:36.466Z,100962.70
2019-05-10T14:56:07.982Z,100965.17
2019-05-10T14:58:37.200Z,100970.50
2019-05-10T15:04:49.169Z,100963.91
2019-05-10T15:07:08.759Z,100962.91
2019-05-10T15:09:36.375Z,100958.06
2019-05-10T15:12:10.230Z,100957.05
2019-05-10T15:14:37.628Z,100956.49
2019-05-10T15:17:07.225Z,100962.98
2019-05-10T15:19:37.009Z,100952.02
2019-05-10T15:22:06.369Z,100946.83
2019-05-10T15:24:35.826Z,100945.10
2019-05-10T15:30:05.325Z,100941.92
2019-05-10T15:32:32.046Z,100940.45
2019-05-10T15:35:07.645Z,100943.02
2019-05-10T15:37:52.209Z,100947.02
2019-05-10T15:43:03.107Z,100933.55
2019-05-10T15:45:33.900Z,100933.83
2019-05-10T15:48:04.560Z,100935.67
2019-05-10T15:50:38.595Z,100938.85
2019-05-10T15:53:05.916Z,100931.86
2019-05-10T15:55:35.523Z,100951.16
2019-05-10T16:01:45.184Z,100940.99
2019-05-10T16:04:32.478Z,100945.58
2019-05-10T16:07:02.277Z,100932.72
2019-05-10T16:09:34.123Z,100945.61
2019-05-10T16:12:08.422Z,100943.73
2019-05-10T16:14:39.156Z,100949.99
2019-05-10T16:17:10.226Z,100951.42
2019-05-10T16:19:37.947Z,100955.39
2019-05-10T16:22:07.571Z,100957.86
2019-05-10T16:24:37.814Z,100947.23
2019-05-10T16:27:08.154Z,100943.55
2019-05-10T16:29:39.729Z,100938.45
2019-05-10T16:32:08.841Z,100934.34
2019-05-10T16:34:38.267Z,100931.12
2019-05-10T16:37:07.699Z,100937.51
2019-05-10T16:39:39.210Z,100938.20
2019-05-10T16:42:09.203Z,100928.01
2019-05-10T16:44:39.592Z,100925.78
2019-05-10T16:47:09.075Z,100921.07
2019-05-10T16:49:39.362Z,100915.21
2019-05-10T16:52:08.945Z,100919.65
2019-05-10T16:54:38.555Z,100921.55
2019-05-10T16:57:08.172Z,100921.27
2019-05-10T16:59:37.625Z,100919.57
2019-05-10T17:02:07.155Z,100926.98
2019-05-10T17:04:37.566Z,100923.91
2019-05-10T17:07:12.874Z,100925.05
2019-05-10T17:09:38.943Z,100928.72
2019-05-10T17:12:08.438Z,100923.09
2019-05-10T17:14:39.786Z,100926.72
2019-05-10T17:17:09.176Z,100935.92
2019-05-10T17:19:38.627Z,100931.53
2019-05-10T17:22:08.068Z,100937.76
2019-05-10T17:24:37.452Z,100929.33
2019-05-10T17:27:07.330Z,100934.73
2019-05-10T17:29:37.157Z,100933.83
2019-05-10T17:32:06.836Z,100923.45
2019-05-10T17:34:36.460Z,100924.30
2019-05-10T17:37:10.692Z,100916.76
2019-05-10T17:39:42.658Z,100916.66
2019-05-10T17:42:12.046Z,100929.14
2019-05-10T17:44:43.723Z,100927.86
2019-05-10T17:47:14.073Z,100919.11
2019-05-10T17:49:48.597Z,100930.92
2019-05-10T17:52:19.541Z,100926.52
2019-05-10T17:54:49.798Z,100922.85
2019-05-10T17:57:19.256Z,100916.94
2019-05-10T17:59:52.788Z,100920.52
2019-05-10T18:02:19.987Z,100923.36
2019-05-10T18:04:49.860Z,100926.84
2019-05-10T18:07:19.342Z,100927.23
2019-05-10T18:09:49.704Z,100924.20
2019-05-10T18:12:20.394Z,100918.67
2019-05-10T18:14:55.630Z,100924.33
2019-05-10T18:17:26.005Z,100918.32
2019-05-10T18:19:56.719Z,100916.91
2019-05-10T18:22:24.372Z,100910.77
2019-05-10T18:24:54.491Z,100908.61
2019-05-10T18:27:23.934Z,100908.14
2019-05-10T18:29:53.498Z,100922.92
2019-05-10T18:32:29.341Z,100917.10
2019-05-10T18:34:54.812Z,100925.28
2019-05-10T18:37:24.274Z,100917.20
2019-05-10T18:39:54.783Z,100919.38
2019-05-10T18:42:27.762Z,100918.91
2019-05-10T18:44:57.672Z,100915.13
2019-05-10T18:47:27.082Z,100919.28
2019-05-10T18:49:56.866Z,100916.27
2019-05-10T18:52:27.017Z,100918.91
2019-05-10T18:54:56.389Z,100916.06
2019-05-10T18:57:25.789Z,100927.08
2019-05-10T18:59:55.696Z,100922.56
2019-05-10T19:02:25.158Z,100932.25
2019-05-10T19:04:54.981Z,100930.28
2019-05-10T19:07:24.437Z,100929.61
2019-05-10T19:09:55.219Z,100922.94
2019-05-10T19:12:26.036Z,100924.72
2019-05-10T19:14:55.699Z,100928.77
2019-05-10T19:17:25.010Z,100924.08
2019-05-10T19:19:54.773Z,100932.80
2019-05-10T19:22:24.506Z,100922.71
2019-05-10T19:24:56.863Z,100919.52
2019-05-10T19:27:25.388Z,100916.78
2019-05-10T19:29:55.122Z,100916.02
2019-05-10T19:32:24.558Z,100915.84
2019-05-10T19:34:57.622Z,100911.04
2019-05-10T19:37:44.976Z,100911.81
2019-05-10T19:42:55.427Z,100919.60
2019-05-10T19:48:36.938Z,100931.84
2019-05-10T19:51:09.587Z,100922.50
2019-05-10T19:53:42.212Z,100922.20
2019-05-10T19:56:10.018Z,100917.98
2019-05-10T19:58:40.190Z,100915.86
2019-05-10T20:04:27.545Z,100910.12
2019-05-10T20:06:57.108Z,100909.39
2019-05-10T20:12:33.330Z,100905.45
2019-05-10T20:18:12.212Z,100904.69
2019-05-10T20:21:21.464Z,100903.84
2019-05-10T20:24:10.603Z,100901.67
2019-05-10T20:26:40.194Z,100900.41
2019-05-10T20:32:06.231Z,100891.91
2019-05-10T20:43:10.841Z,100887.36
2019-05-10T20:46:19.520Z,100874.48
2019-05-10T20:49:29.084Z,100878.23
2019-05-10T20:57:56.457Z,100871.02
2019-05-10T21:01:06.137Z,100872.34
2019-05-10T21:03:35.995Z,100866.61
2019-05-10T21:06:05.836Z,100860.80
2019-05-10T21:08:35.348Z,100857.05
2019-05-10T21:11:44.276Z,100856.75
2019-05-10T21:14:13.875Z,100858.36
2019-05-10T21:16:43.294Z,100856.61
2019-05-10T21:19:12.696Z,100855.45
2019-05-10T21:21:42.273Z,100858.47
2019-05-10T21:24:51.154Z,100859.98
2019-05-10T21:28:00.261Z,100860.69
2019-05-10T21:30:30.231Z,100859.05
2019-05-10T21:33:00.448Z,100855.59
2019-05-10T21:35:30.081Z,100854.16
2019-05-10T21:37:59.723Z,100856.14
2019-05-10T21:40:29.065Z,100859.59
2019-05-10T21:48:55.661Z,100858.94
2019-05-10T21:51:25.117Z,100863.48
2019-05-10T21:54:34.966Z,100860.74
2019-05-10T22:06:05.985Z,100849.95
2019-05-10T22:13:59.098Z,100846.02
2019-05-10T22:16:28.582Z,100851.94
2019-05-10T22:21:55.486Z,100851.95
2019-05-10T22:24:25.987Z,100861.55
2019-05-10T22:26:56.498Z,100867.87
2019-05-10T22:29:26.222Z,100869.06
2019-05-10T22:31:55.744Z,100860.13
2019-05-10T22:35:04.513Z,100864.27
2019-05-10T22:37:33.953Z,100858.91
2019-05-10T22:40:03.652Z,100858.47
2019-05-10T22:45:42.827Z,100853.87
2019-05-10T22:48:12.806Z,100848.03
2019-05-10T22:50:43.157Z,100843.53
2019-05-10T22:53:13.018Z,100857.36
2019-05-10T22:55:42.627Z,100852.19
2019-05-10T22:58:12.529Z,100852.64
2019-05-10T23:01:21.714Z,100855.27
2019-05-10T23:06:52.607Z,100850.25
2019-05-10T23:09:24.963Z,100870.05
2019-05-10T23:11:54.021Z,100874.06
2019-05-10T23:15:02.932Z,100881.11
2019-05-10T23:17:32.420Z,100880.15
2019-05-10T23:20:02.295Z,100874.30
2019-05-10T23:22:33.065Z,100876.00
2019-05-10T23:25:02.686Z,100870.58
2019-05-10T23:27:32.148Z,100879.32
2019-05-10T23:30:40.878Z,100876.41
2019-05-10T23:33:10.898Z,100878.95
2019-05-10T23:35:40.644Z,100893.91
2019-05-10T23:38:10.731Z,100888.72
2019-05-10T23:41:20.133Z,100883.27
2019-05-10T23:47:04.918Z,100885.91
2019-05-10T23:50:13.585Z,100887.00
2019-05-10T23:55:39.288Z,100888.02
